Terminal Aerodrome Forecast
Issued by NWS Melbourne, FL

Home | Current Version | Previous Version | Text Only | Print | Product List | Glossary On
Versions: 1 2 3 4 5 6 7 8 9 10 11 12 13 14 15 16 17 18
000
FTUS42 KMLB 232341
TAFDAB
TAF
KDAB 232341Z 2400/2424 03012KT P6SM VCSH BKN008 BKN050 OVC100
     FM240600 35008KT P6SM OVC005
     FM241500 02012KT P6SM VCSH SCT008 OVC015
     FM241800 36012KT P6SM BKN020=

USA.gov is the U.S. government's official web portal to all federal, state and local government web resources and services.